createdAt,value
2022-12-11T00:01:17.611Z,11.03
2022-12-11T00:03:48.153Z,11.03
2022-12-11T00:06:20.123Z,11.01
2022-12-11T00:08:53.212Z,11.01
2022-12-11T00:11:23.178Z,11.02
2022-12-11T00:13:51.421Z,11.02
2022-12-11T00:16:25.317Z,11.00
2022-12-11T00:18:55.717Z,11.00
2022-12-11T00:21:23.900Z,11.01
2022-12-11T00:23:52.325Z,11.02
2022-12-11T00:26:21.037Z,11.06
2022-12-11T00:28:54.349Z,11.09
2022-12-11T00:31:23.815Z,11.11
2022-12-11T00:33:52.330Z,11.13
2022-12-11T00:36:24.458Z,11.11
2022-12-11T00:38:53.975Z,11.13
2022-12-11T00:41:22.857Z,11.14
2022-12-11T00:43:51.284Z,11.16
2022-12-11T00:46:19.756Z,11.17
2022-12-11T00:48:50.066Z,11.18
2022-12-11T00:51:18.364Z,11.15
2022-12-11T00:53:46.857Z,11.15
2022-12-11T00:56:21.009Z,11.12
2022-12-11T00:58:49.985Z,11.09
2022-12-11T01:01:21.423Z,11.07
2022-12-11T01:03:50.222Z,11.05
2022-12-11T01:06:22.102Z,11.03
2022-12-11T01:09:13.523Z,11.03
2022-12-11T01:11:49.342Z,10.99
2022-12-11T01:14:18.146Z,11.01
2022-12-11T01:16:46.577Z,11.02
2022-12-11T01:19:15.803Z,11.04
2022-12-11T01:21:44.189Z,11.04
2022-12-11T01:24:12.447Z,11.04
2022-12-11T01:26:40.683Z,11.02
2022-12-11T01:29:08.857Z,10.99
2022-12-11T01:31:37.975Z,10.98
2022-12-11T01:34:06.236Z,10.97
2022-12-11T01:36:34.501Z,10.94
2022-12-11T01:39:02.738Z,10.91
2022-12-11T01:41:31.025Z,10.89
2022-12-11T01:44:19.502Z,10.85
2022-12-11T01:46:48.109Z,10.82
2022-12-11T01:49:19.098Z,10.77
2022-12-11T01:51:53.218Z,10.71
2022-12-11T01:54:24.276Z,10.67
2022-12-11T01:56:56.333Z,10.63
2022-12-11T01:59:29.153Z,10.57
2022-12-11T02:02:03.513Z,10.52
2022-12-11T02:04:35.498Z,10.48
2022-12-11T02:07:04.550Z,10.43
2022-12-11T02:09:35.580Z,10.39
2022-12-11T02:12:26.909Z,10.37
2022-12-11T02:15:32.707Z,10.32
2022-12-11T02:18:30.206Z,10.29
2022-12-11T02:21:01.356Z,10.24
2022-12-11T02:24:17.216Z,10.22
2022-12-11T02:27:01.864Z,10.18
2022-12-11T02:29:39.732Z,10.16
2022-12-11T02:32:23.713Z,10.12
2022-12-11T02:35:15.422Z,10.12
2022-12-11T02:37:47.999Z,10.09
2022-12-11T02:40:21.820Z,10.06
2022-12-11T02:42:51.640Z,10.04
2022-12-11T02:45:23.039Z,10.00
2022-12-11T02:47:52.774Z,9.96
2022-12-11T02:50:23.923Z,9.91
2022-12-11T02:52:55.997Z,9.88
2022-12-11T02:55:26.373Z,9.86
2022-12-11T02:58:06.562Z,9.81
2022-12-11T03:00:36.780Z,9.75
2022-12-11T03:03:05.517Z,9.69
2022-12-11T03:05:33.823Z,9.66
2022-12-11T03:08:02.584Z,9.65
2022-12-11T03:10:31.106Z,9.64
2022-12-11T03:13:00.549Z,9.62
2022-12-11T03:15:55.040Z,9.59
2022-12-11T03:18:46.832Z,9.54
2022-12-11T03:21:27.297Z,9.51
2022-12-11T03:24:10.119Z,9.49
2022-12-11T03:26:43.837Z,9.47
2022-12-11T03:29:21.314Z,9.45
2022-12-11T03:31:59.722Z,9.42
2022-12-11T03:34:32.979Z,9.40
2022-12-11T03:37:03.485Z,9.38
2022-12-11T03:39:36.433Z,9.36
2022-12-11T03:42:08.395Z,9.35
2022-12-11T03:44:38.020Z,9.34
2022-12-11T03:47:09.669Z,9.33
2022-12-11T03:49:42.257Z,9.33
2022-12-11T03:52:12.894Z,9.33
2022-12-11T03:54:44.404Z,9.33
2022-12-11T03:57:16.848Z,9.31
2022-12-11T03:59:45.292Z,9.26
2022-12-11T04:02:13.560Z,9.23
2022-12-11T04:04:42.672Z,9.20
2022-12-11T04:07:10.998Z,9.16
2022-12-11T04:09:39.285Z,9.15
2022-12-11T04:12:07.621Z,9.14
2022-12-11T04:14:54.627Z,9.14
2022-12-11T04:17:41.373Z,9.14
2022-12-11T04:20:29.893Z,9.16
2022-12-11T04:23:16.710Z,9.19
2022-12-11T04:25:45.223Z,9.19
2022-12-11T04:28:13.515Z,9.21
2022-12-11T04:30:41.981Z,9.19
2022-12-11T04:33:10.296Z,9.18
2022-12-11T04:35:38.529Z,9.17
2022-12-11T04:38:06.775Z,9.15
2022-12-11T04:40:35.043Z,9.12
2022-12-11T04:43:03.588Z,9.09
2022-12-11T04:45:31.838Z,9.08
2022-12-11T04:48:00.101Z,9.08
2022-12-11T04:50:28.431Z,9.09
2022-12-11T04:52:57.461Z,9.11
2022-12-11T04:55:25.809Z,9.14
2022-12-11T04:57:54.132Z,9.18
2022-12-11T05:00:22.884Z,9.17
2022-12-11T05:02:51.196Z,9.18
2022-12-11T05:05:19.646Z,9.22
2022-12-11T05:07:47.984Z,9.22
2022-12-11T05:10:16.328Z,9.19
2022-12-11T05:12:44.560Z,9.21
2022-12-11T05:15:12.959Z,9.22
2022-12-11T05:17:41.450Z,9.21
2022-12-11T05:20:10.730Z,9.22
2022-12-11T05:22:39.366Z,9.25
2022-12-11T05:25:08.206Z,9.25
2022-12-11T05:27:36.531Z,9.24
2022-12-11T05:30:06.595Z,9.26
2022-12-11T05:32:35.281Z,9.27
2022-12-11T05:35:03.937Z,9.28
2022-12-11T05:37:33.548Z,9.28
2022-12-11T05:40:02.137Z,9.31
2022-12-11T05:42:30.420Z,9.33
2022-12-11T05:44:58.720Z,9.36
2022-12-11T05:47:26.987Z,9.40
2022-12-11T05:49:55.189Z,9.43
2022-12-11T05:52:23.496Z,9.42
2022-12-11T05:54:51.861Z,9.41
2022-12-11T05:57:20.106Z,9.43
2022-12-11T05:59:48.279Z,9.43
2022-12-11T06:02:16.648Z,9.44
2022-12-11T06:04:44.992Z,9.46
2022-12-11T06:07:13.692Z,9.47
2022-12-11T06:09:41.988Z,9.50
2022-12-11T06:12:10.289Z,9.51
2022-12-11T06:14:38.591Z,9.53
2022-12-11T06:17:07.614Z,9.51
2022-12-11T06:19:37.192Z,9.51
2022-12-11T06:22:05.470Z,9.49
2022-12-11T06:24:33.752Z,9.45
2022-12-11T06:27:02.010Z,9.47
2022-12-11T06:29:30.246Z,9.59
2022-12-11T06:31:58.593Z,9.70
2022-12-11T06:34:27.001Z,9.79
2022-12-11T06:36:55.233Z,9.90
2022-12-11T06:39:23.526Z,9.98
2022-12-11T06:41:58.134Z,10.05
2022-12-11T06:45:38.206Z,10.11
2022-12-11T06:48:23.210Z,10.18
2022-12-11T06:50:51.495Z,10.22
2022-12-11T06:53:19.720Z,10.24
2022-12-11T06:55:47.974Z,10.28
2022-12-11T06:58:17.960Z,10.32
2022-12-11T07:00:46.243Z,10.33
2022-12-11T07:03:16.712Z,10.31
2022-12-11T07:05:44.973Z,10.28
2022-12-11T07:08:13.235Z,10.26
2022-12-11T07:10:43.807Z,10.20
2022-12-11T07:13:12.106Z,10.15
2022-12-11T07:15:40.711Z,10.09
2022-12-11T07:18:11.599Z,10.02
2022-12-11T07:20:40.098Z,9.96
2022-12-11T07:23:09.232Z,9.90
2022-12-11T07:25:38.192Z,9.82
2022-12-11T07:28:06.527Z,9.73
2022-12-11T07:30:34.829Z,9.64
2022-12-11T07:33:03.261Z,9.57
2022-12-11T07:35:31.654Z,9.48
2022-12-11T07:37:59.930Z,9.41
2022-12-11T07:40:28.351Z,9.33
2022-12-11T07:42:56.793Z,9.26
2022-12-11T07:45:26.498Z,9.19
2022-12-11T07:47:54.756Z,9.11
2022-12-11T07:50:23.111Z,9.03
2022-12-11T07:52:51.376Z,8.94
2022-12-11T07:55:19.663Z,8.83
2022-12-11T07:57:47.925Z,8.74
2022-12-11T08:00:17.014Z,8.65
2022-12-11T08:02:45.279Z,8.57
2022-12-11T08:05:13.835Z,8.48
2022-12-11T08:07:42.354Z,8.41
2022-12-11T08:10:10.625Z,8.35
2022-12-11T08:12:38.891Z,8.30
2022-12-11T08:15:07.743Z,8.25
2022-12-11T08:17:39.969Z,8.17
2022-12-11T08:20:09.081Z,8.12
2022-12-11T08:22:37.357Z,8.08
2022-12-11T08:25:06.156Z,8.02
2022-12-11T08:27:34.370Z,7.98
2022-12-11T08:30:02.891Z,7.93
2022-12-11T08:32:31.170Z,7.88
2022-12-11T08:34:59.444Z,7.86
2022-12-11T08:37:28.114Z,7.85
2022-12-11T08:39:56.390Z,7.82
2022-12-11T08:42:24.588Z,7.79
2022-12-11T08:44:52.780Z,7.75
2022-12-11T08:47:21.528Z,7.71
2022-12-11T08:49:49.728Z,7.70
2022-12-11T08:52:18.016Z,7.69
2022-12-11T08:54:46.189Z,7.69
2022-12-11T08:57:14.457Z,7.65
2022-12-11T08:59:42.739Z,7.55
2022-12-11T09:02:13.534Z,7.42
2022-12-11T09:04:42.046Z,7.33
2022-12-11T09:07:10.666Z,7.25
2022-12-11T09:09:39.011Z,7.17
2022-12-11T09:12:07.652Z,7.03
2022-12-11T09:14:35.925Z,6.96
2022-12-11T09:17:05.618Z,6.90
2022-12-11T09:19:33.901Z,6.88
2022-12-11T09:22:02.177Z,6.83
2022-12-11T09:24:30.435Z,6.80
2022-12-11T09:26:58.737Z,6.82
2022-12-11T09:29:26.958Z,6.84
2022-12-11T09:31:57.108Z,6.87
2022-12-11T09:34:29.234Z,6.88
2022-12-11T09:36:58.373Z,6.89
2022-12-11T09:39:26.693Z,6.93
2022-12-11T09:42:20.955Z,6.94
2022-12-11T09:44:53.589Z,6.97
2022-12-11T09:47:36.067Z,6.99
2022-12-11T09:50:17.741Z,7.05
2022-12-11T09:53:00.191Z,7.10
2022-12-11T09:55:55.250Z,7.14
2022-12-11T09:58:50.769Z,7.17
2022-12-11T10:01:30.132Z,7.24
2022-12-11T10:04:28.721Z,7.31
2022-12-11T10:07:02.964Z,7.37
2022-12-11T10:09:57.347Z,7.38
2022-12-11T10:12:46.625Z,7.39
2022-12-11T10:15:43.228Z,7.43
2022-12-11T10:18:16.336Z,7.49
2022-12-11T10:20:45.541Z,7.54
2022-12-11T10:23:40.589Z,7.59
2022-12-11T10:26:16.866Z,7.65
2022-12-11T10:28:45.229Z,7.70
2022-12-11T10:31:40.761Z,7.74
2022-12-11T10:34:15.147Z,7.80
2022-12-11T10:36:44.764Z,7.85
2022-12-11T10:39:16.049Z,7.87
2022-12-11T10:41:46.952Z,7.89
2022-12-11T10:44:33.264Z,7.92
2022-12-11T10:47:13.948Z,7.92
2022-12-11T10:50:00.562Z,7.96
2022-12-11T10:52:34.491Z,7.99
2022-12-11T10:55:07.031Z,8.00
2022-12-11T10:57:37.315Z,7.97
2022-12-11T11:00:26.638Z,7.93
2022-12-11T11:02:55.598Z,7.88
2022-12-11T11:05:36.105Z,7.86
2022-12-11T11:08:20.229Z,7.81
2022-12-11T11:10:57.591Z,7.79
2022-12-11T11:13:29.125Z,7.78
2022-12-11T11:16:04.608Z,7.76
2022-12-11T11:18:34.360Z,7.71
2022-12-11T11:21:03.431Z,7.69
2022-12-11T11:23:31.857Z,7.67
2022-12-11T11:26:02.725Z,7.75
2022-12-11T11:28:34.254Z,7.88
2022-12-11T11:31:15.834Z,8.06
2022-12-11T11:33:54.157Z,8.31
2022-12-11T11:36:28.125Z,8.45
2022-12-11T11:39:29.812Z,8.51
2022-12-11T11:42:21.300Z,8.56
2022-12-11T11:45:10.347Z,8.70
2022-12-11T11:47:51.453Z,8.74
2022-12-11T11:50:24.963Z,8.75
2022-12-11T11:53:04.125Z,8.67
2022-12-11T11:55:39.852Z,8.69
2022-12-11T11:58:15.902Z,8.64
2022-12-11T12:00:44.233Z,8.48
2022-12-11T12:03:18.496Z,8.23
2022-12-11T12:05:58.453Z,8.05
2022-12-11T12:08:32.700Z,7.87
2022-12-11T12:11:00.953Z,7.74
2022-12-11T12:13:58.308Z,7.58
2022-12-11T12:16:56.229Z,7.42
2022-12-11T12:19:33.412Z,7.31
2022-12-11T12:22:16.853Z,7.17
2022-12-11T12:24:53.879Z,7.05
2022-12-11T12:27:51.740Z,6.96
2022-12-11T12:30:23.037Z,6.90
2022-12-11T12:33:13.109Z,6.79
2022-12-11T12:36:18.141Z,6.69
2022-12-11T12:39:01.321Z,6.64
2022-12-11T12:41:47.484Z,6.62
2022-12-11T12:44:19.279Z,6.52
2022-12-11T12:47:00.341Z,6.48
2022-12-11T12:49:33.116Z,6.46
2022-12-11T12:52:02.888Z,6.44
2022-12-11T12:54:33.514Z,6.41
2022-12-11T12:57:04.326Z,6.37
2022-12-11T12:59:32.486Z,6.35
2022-12-11T13:02:03.200Z,6.27
2022-12-11T13:04:56.317Z,6.15
2022-12-11T13:07:32.871Z,6.02
2022-12-11T13:10:28.428Z,5.93
2022-12-11T13:12:57.423Z,5.79
2022-12-11T13:15:44.027Z,5.60
2022-12-11T13:18:36.200Z,5.44
2022-12-11T13:21:32.479Z,5.30
2022-12-11T13:24:13.117Z,5.22
2022-12-11T13:26:44.037Z,5.15
2022-12-11T13:29:31.746Z,5.08
2022-12-11T13:32:22.578Z,4.95
2022-12-11T13:34:55.662Z,4.87
2022-12-11T13:37:34.916Z,4.78
2022-12-11T13:40:08.503Z,4.67
2022-12-11T13:42:50.376Z,4.58
2022-12-11T13:45:40.935Z,4.50
2022-12-11T13:48:38.094Z,4.37
2022-12-11T13:51:07.368Z,4.30
2022-12-11T13:53:35.713Z,4.28
2022-12-11T13:56:06.736Z,4.25
2022-12-11T13:58:38.222Z,4.20
2022-12-11T14:01:11.452Z,4.15
2022-12-11T14:03:56.618Z,4.11
2022-12-11T14:06:27.698Z,4.06
2022-12-11T14:08:59.523Z,4.01
2022-12-11T14:11:56.471Z,3.98
2022-12-11T14:14:49.999Z,3.94
2022-12-11T14:17:27.368Z,3.89
2022-12-11T14:19:58.182Z,3.86
2022-12-11T14:22:28.982Z,3.81
2022-12-11T14:24:58.459Z,3.78
2022-12-11T14:27:28.186Z,3.74
2022-12-11T14:29:56.916Z,3.73
2022-12-11T14:32:35.784Z,3.72
2022-12-11T14:35:08.637Z,3.72
2022-12-11T14:37:37.450Z,3.71
2022-12-11T14:40:08.469Z,3.69
2022-12-11T14:42:41.191Z,3.69
2022-12-11T14:45:25.318Z,3.65
2022-12-11T14:47:55.272Z,3.58
2022-12-11T14:50:35.215Z,3.52
2022-12-11T14:53:29.447Z,3.46
2022-12-11T14:56:02.594Z,3.39
2022-12-11T14:58:33.280Z,3.34
2022-12-11T15:01:22.479Z,3.29
2022-12-11T15:04:01.637Z,3.23
2022-12-11T15:06:35.778Z,3.20
2022-12-11T15:09:37.554Z,3.14
2022-12-11T15:12:15.741Z,3.11
2022-12-11T15:15:04.175Z,3.10
2022-12-11T15:17:34.734Z,3.07
2022-12-11T15:20:07.648Z,3.06
2022-12-11T15:22:39.318Z,3.03
2022-12-11T15:25:21.837Z,3.01
2022-12-11T15:27:59.775Z,3.00
2022-12-11T15:30:31.356Z,2.96
2022-12-11T15:33:11.729Z,2.94
2022-12-11T15:35:52.402Z,2.92
2022-12-11T15:38:47.627Z,2.88
2022-12-11T15:41:26.056Z,2.83
2022-12-11T15:43:58.835Z,2.80
2022-12-11T15:46:28.007Z,2.74
2022-12-11T15:48:57.735Z,2.69
2022-12-11T15:51:27.768Z,2.66
2022-12-11T15:53:56.045Z,2.66
2022-12-11T15:56:26.637Z,2.62
2022-12-11T15:59:01.325Z,2.58
2022-12-11T16:01:29.574Z,2.56
2022-12-11T16:04:01.801Z,2.53
2022-12-11T16:06:33.564Z,2.49
2022-12-11T16:09:04.197Z,2.46
2022-12-11T16:11:32.492Z,2.42
2022-12-11T16:14:04.374Z,2.38
2022-12-11T16:16:32.841Z,2.38
2022-12-11T16:19:01.091Z,2.34
2022-12-11T16:21:29.475Z,2.31
2022-12-11T16:23:57.766Z,2.27
2022-12-11T16:26:26.126Z,2.24
2022-12-11T16:29:01.795Z,2.21
2022-12-11T16:31:32.577Z,2.16
2022-12-11T16:34:03.195Z,2.13
2022-12-11T16:36:31.576Z,2.10
2022-12-11T16:39:01.665Z,2.03
2022-12-11T16:41:30.125Z,2.01
2022-12-11T16:44:01.220Z,2.00
2022-12-11T16:46:29.646Z,1.95
2022-12-11T16:48:57.969Z,1.89
2022-12-11T16:51:26.272Z,1.84
2022-12-11T16:53:56.898Z,1.80
2022-12-11T16:56:26.722Z,1.77
2022-12-11T16:58:57.512Z,1.73
2022-12-11T17:01:25.812Z,1.72
2022-12-11T17:03:54.924Z,1.69
2022-12-11T17:06:23.700Z,1.68
2022-12-11T17:08:53.583Z,1.64
2022-12-11T17:11:26.434Z,1.60
2022-12-11T17:13:56.333Z,1.56
2022-12-11T17:16:26.609Z,1.56
2022-12-11T17:18:58.447Z,1.54
2022-12-11T17:21:26.949Z,1.50
2022-12-11T17:23:55.330Z,1.47
2022-12-11T17:26:25.404Z,1.44
2022-12-11T17:28:53.838Z,1.40
2022-12-11T17:31:22.175Z,1.36
2022-12-11T17:33:50.620Z,1.33
2022-12-11T17:36:21.120Z,1.32
2022-12-11T17:38:50.181Z,1.34
2022-12-11T17:41:21.137Z,1.31
2022-12-11T17:43:53.326Z,1.27
2022-12-11T17:46:21.756Z,1.24
2022-12-11T17:48:50.231Z,1.21
2022-12-11T17:51:24.745Z,1.22
2022-12-11T17:53:56.171Z,1.21
2022-12-11T17:56:26.179Z,1.18
2022-12-11T17:58:54.585Z,1.15
2022-12-11T18:01:22.816Z,1.12
2022-12-11T18:03:51.219Z,1.10
2022-12-11T18:06:19.580Z,1.10
2022-12-11T18:08:47.978Z,1.08
2022-12-11T18:11:18.635Z,1.07
2022-12-11T18:13:48.973Z,1.05
2022-12-11T18:16:21.224Z,1.04
2022-12-11T18:18:50.566Z,1.04
2022-12-11T18:21:25.404Z,1.03
2022-12-11T18:23:54.195Z,1.04
2022-12-11T18:26:25.726Z,1.04
2022-12-11T18:28:54.764Z,1.05
2022-12-11T18:31:23.642Z,1.04
2022-12-11T18:33:52.944Z,1.02
2022-12-11T18:36:22.168Z,0.99
2022-12-11T18:38:50.500Z,0.96
2022-12-11T18:41:20.169Z,0.94
2022-12-11T18:43:48.579Z,0.90
2022-12-11T18:46:20.174Z,0.87
2022-12-11T18:48:48.721Z,0.86
2022-12-11T18:51:23.823Z,0.82
2022-12-11T18:53:52.628Z,0.80
2022-12-11T18:56:21.545Z,0.77
2022-12-11T18:58:51.879Z,0.75
2022-12-11T19:01:24.446Z,0.72
2022-12-11T19:04:05.568Z,0.69
2022-12-11T19:06:37.339Z,0.68
2022-12-11T19:09:07.854Z,0.68
2022-12-11T19:11:39.714Z,0.67
2022-12-11T19:14:08.673Z,0.68
2022-12-11T19:16:40.728Z,0.69
2022-12-11T19:19:14.482Z,0.69
2022-12-11T19:21:43.608Z,0.65
2022-12-11T19:24:18.294Z,0.64
2022-12-11T19:26:46.661Z,0.63
2022-12-11T19:29:21.667Z,0.64
2022-12-11T19:31:50.052Z,0.64
2022-12-11T19:34:18.605Z,0.64
2022-12-11T19:36:47.683Z,0.64
2022-12-11T19:39:16.262Z,0.67
2022-12-11T19:41:44.533Z,0.62
2022-12-11T19:44:12.872Z,0.59
2022-12-11T19:46:41.607Z,0.56
2022-12-11T19:49:11.968Z,0.55
2022-12-11T19:51:42.100Z,0.54
2022-12-11T19:54:14.627Z,0.55
2022-12-11T19:56:43.616Z,0.52
2022-12-11T19:59:16.672Z,0.49
2022-12-11T20:01:48.329Z,0.43
2022-12-11T20:04:17.972Z,0.42
2022-12-11T20:06:47.543Z,0.39
2022-12-11T20:09:16.428Z,0.34
2022-12-11T20:11:45.676Z,0.35
2022-12-11T20:14:20.057Z,0.31
2022-12-11T20:19:39.429Z,0.21
2022-12-11T20:22:07.786Z,0.12
2022-12-11T20:24:36.458Z,0.08
2022-12-11T20:27:05.087Z,0.03
2022-12-11T20:29:33.393Z,0.01
2022-12-11T20:32:01.741Z,-0.01
2022-12-11T20:34:29.915Z,0.00
2022-12-11T20:37:00.323Z,-0.03
2022-12-11T20:39:29.257Z,-0.03
2022-12-11T20:41:57.975Z,-0.04
2022-12-11T20:44:26.381Z,-0.03
2022-12-11T20:46:55.324Z,-0.04
2022-12-11T20:49:23.706Z,-0.03
2022-12-11T20:51:52.076Z,0.00
2022-12-11T20:54:20.430Z,0.03
2022-12-11T20:56:48.792Z,0.06
2022-12-11T20:59:17.684Z,0.03
2022-12-11T21:01:46.233Z,-0.03
2022-12-11T21:04:14.571Z,-0.06
2022-12-11T21:06:42.948Z,-0.08
2022-12-11T21:09:14.404Z,-0.14
2022-12-11T21:11:42.687Z,-0.18
2022-12-11T21:14:11.013Z,-0.23
2022-12-11T21:16:39.552Z,-0.24
2022-12-11T21:19:10.211Z,-0.29
2022-12-11T21:21:43.107Z,-0.35
2022-12-11T21:24:18.769Z,-0.34
2022-12-11T21:26:48.198Z,-0.33
2022-12-11T21:29:17.220Z,-0.34
2022-12-11T21:31:45.547Z,-0.31
2022-12-11T21:34:14.227Z,-0.28
2022-12-11T21:36:42.509Z,-0.23
2022-12-11T21:39:12.339Z,-0.21
2022-12-11T21:41:41.466Z,-0.23
2022-12-11T21:46:59.665Z,-0.20
2022-12-11T21:49:27.962Z,-0.20
2022-12-11T21:51:56.521Z,-0.21
2022-12-11T21:54:24.837Z,-0.21
2022-12-11T21:56:58.844Z,-0.20
2022-12-11T21:59:28.817Z,-0.21
2022-12-11T22:01:57.125Z,-0.23
2022-12-11T22:04:25.414Z,-0.29
2022-12-11T22:06:53.887Z,-0.33
2022-12-11T22:09:22.178Z,-0.35
2022-12-11T22:11:55.041Z,-0.33
2022-12-11T22:14:26.943Z,-0.40
2022-12-11T22:16:55.258Z,-0.42
2022-12-11T22:19:27.745Z,-0.38
2022-12-11T22:21:58.987Z,-0.40
2022-12-11T22:24:27.251Z,-0.42
2022-12-11T22:26:55.535Z,-0.42
2022-12-11T22:29:23.916Z,-0.41
2022-12-11T22:31:53.033Z,-0.40
2022-12-11T22:34:22.125Z,-0.38
2022-12-11T22:36:50.479Z,-0.41
2022-12-11T22:39:18.855Z,-0.40
2022-12-11T22:41:47.186Z,-0.42
2022-12-11T22:44:18.439Z,-0.43
2022-12-11T22:46:49.959Z,-0.50
2022-12-11T22:49:20.023Z,-0.53
2022-12-11T22:51:49.155Z,-0.57
2022-12-11T22:54:17.531Z,-0.59
2022-12-11T22:56:45.810Z,-0.59
2022-12-11T22:59:14.039Z,-0.59
2022-12-11T23:01:42.405Z,-0.61
2022-12-11T23:04:10.698Z,-0.64
2022-12-11T23:06:41.553Z,-0.67
2022-12-11T23:09:11.292Z,-0.69
2022-12-11T23:11:40.120Z,-0.69
2022-12-11T23:14:13.518Z,-0.71
2022-12-11T23:16:42.091Z,-0.69
2022-12-11T23:19:11.718Z,-0.67
2022-12-11T23:21:40.559Z,-0.64
2022-12-11T23:24:09.412Z,-0.63
2022-12-11T23:26:38.600Z,-0.66
2022-12-11T23:29:06.949Z,-0.69
2022-12-11T23:31:35.412Z,-0.70
2022-12-11T23:34:03.644Z,-0.70
2022-12-11T23:36:31.966Z,-0.72
2022-12-11T23:39:00.237Z,-0.73
2022-12-11T23:41:28.452Z,-0.73
2022-12-11T23:43:56.677Z,-0.79
2022-12-11T23:46:25.618Z,-0.78
2022-12-11T23:48:54.661Z,-0.77
2022-12-11T23:51:25.091Z,-0.81
2022-12-11T23:53:53.538Z,-0.85
2022-12-11T23:56:25.015Z,-0.84
2022-12-11T23:58:54.151Z,-0.82
